Time;durP1;ratioP1;P1;durP2;ratioP2;P2;SDS_P1;SDS_P2;PMS_P1;PMS_P2;Temp;Humidity;BMP_temperature;BMP_pressure;BME280_temperature;BME280_humidity;BME280_pressure;Samples;Min_cycle;Max_cycle;Signal;HPM_P1;HPM_P2
2023/12/16 00:01:00;;;;;;;9.20;5.63;;;5.70;28.80;;;;;;5059443;28;20516;-75
2023/12/16 00:03:29;;;;;;;7.30;4.97;;;5.70;31.00;;;;;;5073868;28;20178;-74
2023/12/16 00:05:54;;;;;;;7.97;6.20;;;5.70;30.70;;;;;;5073550;28;20181;-73
2023/12/16 00:08:21;;;;;;;6.30;5.07;;;5.70;30.40;;;;;;5073487;28;20483;-75
2023/12/16 00:10:47;;;;;;;7.40;5.30;;;5.70;29.90;;;;;;5072770;28;20167;-75
2023/12/16 00:13:13;;;;;;;9.00;6.20;;;5.70;30.30;;;;;;5054559;28;21021;-75
2023/12/16 00:15:38;;;;;;;10.37;7.13;;;5.70;30.00;;;;;;5054600;28;20588;-74
2023/12/16 00:18:04;;;;;;;9.73;6.60;;;5.70;29.70;;;;;;5072539;28;20263;-75
2023/12/16 00:20:29;;;;;;;5.90;5.40;;;5.70;28.80;;;;;;5072619;28;20176;-75
2023/12/16 00:22:55;;;;;;;7.37;5.33;;;5.60;28.70;;;;;;5072251;28;20223;-75
2023/12/16 00:25:20;;;;;;;6.87;4.70;;;5.60;29.00;;;;;;5072386;28;20180;-75
2023/12/16 00:27:46;;;;;;;11.60;5.87;;;5.60;29.40;;;;;;5072114;28;20237;-75
2023/12/16 00:30:12;;;;;;;7.10;5.07;;;5.60;28.80;;;;;;5054407;28;20205;-75
2023/12/16 00:32:39;;;;;;;9.37;6.53;;;5.70;28.80;;;;;;5072330;28;20222;-75
2023/12/16 00:35:07;;;;;;;7.50;5.50;;;5.70;27.90;;;;;;5072561;28;20169;-74
2023/12/16 00:37:33;;;;;;;7.67;5.90;;;5.70;27.70;;;;;;5054094;28;20601;-74
2023/12/16 00:39:58;;;;;;;6.73;5.57;;;5.70;28.00;;;;;;5072262;28;20920;-74
2023/12/16 00:42:24;;;;;;;6.90;5.23;;;5.60;27.60;;;;;;5072968;28;20471;-76
2023/12/16 00:44:49;;;;;;;8.30;5.73;;;5.60;28.00;;;;;;5072516;28;20171;-74
2023/12/16 00:47:15;;;;;;;6.77;5.30;;;5.50;28.70;;;;;;5072605;28;20232;-73
2023/12/16 00:49:40;;;;;;;6.50;5.40;;;5.50;28.70;;;;;;5073325;28;20688;-72
2023/12/16 00:52:06;;;;;;;7.33;5.83;;;5.40;28.60;;;;;;5072254;28;20534;-73
2023/12/16 00:54:31;;;;;;;7.30;5.23;;;5.30;29.30;;;;;;5072245;28;20549;-73
2023/12/16 00:56:57;;;;;;;7.40;5.10;;;5.30;28.50;;;;;;5072153;28;20205;-74
2023/12/16 00:59:23;;;;;;;7.17;5.40;;;5.30;29.90;;;;;;5072902;28;20259;-74
2023/12/16 01:01:49;;;;;;;16.73;5.73;;;5.30;30.30;;;;;;5073666;28;20546;-74
2023/12/16 01:04:14;;;;;;;7.63;3.80;;;5.20;30.00;;;;;;5073006;28;20919;-72
2023/12/16 01:06:40;;;;;;;7.13;5.27;;;5.20;31.00;;;;;;5071764;28;20170;-72
2023/12/16 01:09:05;;;;;;;7.30;5.20;;;5.20;31.70;;;;;;5071590;28;20220;-72
2023/12/16 01:11:31;;;;;;;5.90;4.47;;;5.20;33.10;;;;;;5071748;28;20228;-72
2023/12/16 01:13:56;;;;;;;5.93;4.43;;;5.30;34.10;;;;;;5053922;28;20205;-72
2023/12/16 01:16:22;;;;;;;9.87;4.50;;;5.30;33.90;;;;;;5072073;28;20181;-72
2023/12/16 01:18:47;;;;;;;5.00;3.90;;;5.40;33.30;;;;;;5071580;28;20222;-74
2023/12/16 01:21:13;;;;;;;6.57;5.07;;;5.40;33.10;;;;;;5071929;28;20174;-72
2023/12/16 01:23:38;;;;;;;7.33;5.03;;;5.50;32.30;;;;;;5053640;28;20550;-72
2023/12/16 01:26:04;;;;;;;6.73;4.90;;;5.50;30.50;;;;;;5071653;28;20216;-72
2023/12/16 01:28:30;;;;;;;11.40;6.67;;;5.60;30.00;;;;;;5071281;28;20204;-72
2023/12/16 01:30:56;;;;;;;8.80;5.30;;;5.60;29.50;;;;;;5072113;28;20170;-73
2023/12/16 01:33:22;;;;;;;5.53;4.03;;;5.60;29.80;;;;;;5072904;28;20906;-73
2023/12/16 01:35:48;;;;;;;7.17;3.90;;;5.50;29.80;;;;;;5073331;28;20244;-74
2023/12/16 01:38:14;;;;;;;5.73;3.83;;;5.50;30.70;;;;;;5073579;28;21024;-74
2023/12/16 01:40:40;;;;;;;5.50;4.30;;;5.60;31.00;;;;;;5073525;28;20426;-74
2023/12/16 01:43:07;;;;;;;6.47;4.93;;;5.60;30.60;;;;;;5073416;28;20432;-71
2023/12/16 01:45:32;;;;;;;7.33;4.53;;;5.70;30.10;;;;;;5053642;28;20637;-73
2023/12/16 01:47:59;;;;;;;6.67;4.03;;;5.70;28.80;;;;;;5071523;28;20531;-74
2023/12/16 01:50:26;;;;;;;6.53;3.93;;;5.50;30.30;;;;;;5072859;28;20254;-74
2023/12/16 01:52:53;;;;;;;5.97;5.33;;;5.60;32.40;;;;;;5072277;28;20747;-73
2023/12/16 01:55:20;;;;;;;6.20;4.73;;;5.70;31.20;;;;;;5072546;28;20846;-73
2023/12/16 01:57:46;;;;;;;5.67;4.53;;;5.70;30.50;;;;;;5054165;28;20472;-75
2023/12/16 02:00:13;;;;;;;8.20;4.90;;;5.80;30.70;;;;;;5054311;28;20487;-74
2023/12/16 02:02:39;;;;;;;7.10;4.90;;;5.80;29.40;;;;;;5072610;28;20466;-72
2023/12/16 02:05:06;;;;;;;5.50;3.87;;;5.80;28.90;;;;;;5072510;28;20439;-73
2023/12/16 02:07:32;;;;;;;6.23;4.10;;;5.80;29.50;;;;;;5073901;28;20410;-72
2023/12/16 02:09:57;;;;;;;6.87;4.80;;;5.70;29.40;;;;;;5058063;28;20828;-72
2023/12/16 02:12:26;;;;;;;6.40;3.60;;;5.60;29.40;;;;;;5075774;28;20170;-72
2023/12/16 02:14:52;;;;;;;8.67;5.73;;;5.50;29.10;;;;;;5075968;28;20405;-73
2023/12/16 02:17:18;;;;;;;9.67;7.00;;;5.40;30.00;;;;;;5076339;28;20499;-73
2023/12/16 02:19:46;;;;;;;7.77;5.80;;;5.30;28.50;;;;;;5075227;28;20206;-73
2023/12/16 02:22:11;;;;;;;8.20;6.47;;;5.20;29.60;;;;;;5075671;28;20181;-73
2023/12/16 02:24:38;;;;;;;10.27;6.33;;;5.10;29.90;;;;;;5075178;28;20416;-73
2023/12/16 02:27:04;;;;;;;8.70;7.10;;;5.10;30.00;;;;;;5074912;28;20166;-73
2023/12/16 02:29:29;;;;;;;8.83;7.50;;;5.10;29.80;;;;;;5074229;28;20471;-73
2023/12/16 02:31:55;;;;;;;8.17;5.67;;;5.00;29.50;;;;;;5056675;28;21003;-73
2023/12/16 02:34:23;;;;;;;10.00;7.20;;;4.90;30.20;;;;;;5074366;28;20734;-73
2023/12/16 02:36:48;;;;;;;12.20;7.27;;;4.90;30.10;;;;;;5074625;28;20166;-73
2023/12/16 02:39:14;;;;;;;6.03;5.50;;;4.90;30.00;;;;;;5056452;28;20765;-72
2023/12/16 02:41:40;;;;;;;8.00;5.70;;;4.80;31.20;;;;;;5074952;28;20205;-73
2023/12/16 02:44:05;;;;;;;6.90;5.93;;;4.80;30.60;;;;;;5056448;28;20182;-74
2023/12/16 02:46:31;;;;;;;6.70;5.10;;;4.80;31.60;;;;;;5074101;28;20174;-73
2023/12/16 02:48:56;;;;;;;6.67;5.20;;;4.80;31.90;;;;;;5073453;28;20301;-73
2023/12/16 02:51:22;;;;;;;5.67;5.07;;;4.90;32.90;;;;;;5055874;28;20264;-73
2023/12/16 02:53:47;;;;;;;9.30;7.07;;;4.80;33.30;;;;;;5074123;28;20269;-73
2023/12/16 02:56:13;;;;;;;7.53;5.77;;;4.90;33.40;;;;;;5073768;28;20648;-72
2023/12/16 02:58:39;;;;;;;10.43;4.90;;;4.90;33.70;;;;;;5073275;28;20210;-72
2023/12/16 03:01:06;;;;;;;7.47;6.20;;;4.90;33.40;;;;;;5073656;28;20261;-73
2023/12/16 03:03:31;;;;;;;6.20;5.60;;;4.90;33.60;;;;;;5073705;28;20416;-73
2023/12/16 03:05:57;;;;;;;8.23;6.10;;;5.00;34.90;;;;;;5073871;28;20538;-73
2023/12/16 03:08:22;;;;;;;5.73;5.17;;;5.00;34.40;;;;;;5056102;28;20206;-74
2023/12/16 03:10:48;;;;;;;7.33;5.37;;;5.10;34.20;;;;;;5074951;28;20181;-74
2023/12/16 03:13:13;;;;;;;7.70;5.80;;;5.10;33.60;;;;;;5074592;28;20181;-73
2023/12/16 03:15:39;;;;;;;7.40;5.70;;;5.10;33.00;;;;;;5074281;28;20267;-74
2023/12/16 03:18:04;;;;;;;7.60;5.57;;;5.10;33.00;;;;;;5074186;28;20206;-74
2023/12/16 03:20:30;;;;;;;6.03;5.27;;;5.10;32.60;;;;;;5073898;28;20185;-72
2023/12/16 03:22:55;;;;;;;12.37;6.27;;;5.00;31.80;;;;;;5057397;28;20174;-72
2023/12/16 03:25:23;;;;;;;7.67;5.10;;;5.00;33.40;;;;;;5056527;28;20185;-76
2023/12/16 03:27:48;;;;;;;7.80;6.50;;;5.00;34.40;;;;;;5074048;28;20730;-72
2023/12/16 03:30:14;;;;;;;8.07;6.20;;;5.00;33.00;;;;;;5073611;28;20595;-72
2023/12/16 03:32:39;;;;;;;8.30;6.17;;;5.10;34.20;;;;;;5074499;28;20203;-73
2023/12/16 03:35:05;;;;;;;7.17;5.80;;;5.10;34.00;;;;;;5074199;28;20477;-72
2023/12/16 03:37:31;;;;;;;6.10;5.50;;;5.10;33.90;;;;;;5073350;28;20174;-72
2023/12/16 03:39:56;;;;;;;7.43;5.73;;;5.10;33.00;;;;;;5072693;28;20898;-72
2023/12/16 03:42:22;;;;;;;7.27;5.70;;;5.10;33.00;;;;;;5054785;28;20170;-72
2023/12/16 03:44:47;;;;;;;6.80;5.70;;;5.10;33.00;;;;;;5072788;28;20178;-72
2023/12/16 03:47:13;;;;;;;8.63;5.90;;;5.10;33.90;;;;;;5072569;28;20182;-72
2023/12/16 03:49:42;;;;;;;8.43;6.13;;;5.10;33.00;;;;;;5072245;28;20703;-72
2023/12/16 03:52:08;;;;;;;7.07;5.30;;;5.10;33.10;;;;;;5072456;28;20754;-72
2023/12/16 03:54:33;;;;;;;10.80;7.10;;;5.10;34.00;;;;;;5072559;28;20408;-72
2023/12/16 03:56:59;;;;;;;8.67;7.03;;;5.10;33.70;;;;;;5072418;28;20352;-72
2023/12/16 03:59:24;;;;;;;10.30;6.93;;;5.10;33.70;;;;;;5049037;23;20233;-68
2023/12/16 04:01:50;;;;;;;7.40;6.53;;;5.20;32.90;;;;;;5016804;28;20322;-68
2023/12/16 04:04:15;;;;;;;7.77;5.70;;;5.10;33.00;;;;;;5034611;28;20176;-68
2023/12/16 04:06:44;;;;;;;6.70;5.00;;;5.20;33.70;;;;;;5033919;28;20172;-68
2023/12/16 04:09:10;;;;;;;8.10;4.80;;;5.10;32.40;;;;;;5034660;28;20203;-69
2023/12/16 04:11:36;;;;;;;7.03;4.47;;;5.00;33.00;;;;;;5034635;28;20502;-68
2023/12/16 04:14:01;;;;;;;6.13;4.57;;;5.00;33.00;;;;;;5034879;28;20179;-68
2023/12/16 04:16:27;;;;;;;5.33;4.80;;;5.00;32.90;;;;;;5034269;28;20642;-69
2023/12/16 04:18:53;;;;;;;6.17;4.20;;;5.00;32.90;;;;;;5034343;28;20646;-68
2023/12/16 04:21:18;;;;;;;9.50;4.50;;;5.00;33.00;;;;;;5034691;28;20175;-68
2023/12/16 04:23:44;;;;;;;7.80;4.53;;;5.00;33.00;;;;;;5034763;28;20428;-69
2023/12/16 04:26:09;;;;;;;5.67;4.37;;;4.90;33.30;;;;;;5034487;28;20203;-69
2023/12/16 04:28:35;;;;;;;7.83;5.10;;;5.10;33.70;;;;;;5033880;28;20205;-69
2023/12/16 04:31:00;;;;;;;8.37;6.10;;;5.00;31.60;;;;;;5032796;28;20661;-69
2023/12/16 04:33:26;;;;;;;7.80;4.57;;;4.90;30.50;;;;;;5033591;28;20630;-68
2023/12/16 04:35:51;;;;;;;5.60;4.60;;;4.90;29.60;;;;;;5015555;28;20594;-68
2023/12/16 04:38:17;;;;;;;6.97;5.70;;;4.90;28.50;;;;;;5033073;28;20202;-67
2023/12/16 04:40:42;;;;;;;5.50;5.00;;;4.80;28.20;;;;;;5033296;28;20229;-67
2023/12/16 04:43:08;;;;;;;6.30;4.87;;;4.90;29.80;;;;;;5016688;28;20202;-68
2023/12/16 04:45:35;;;;;;;6.03;5.20;;;5.00;28.40;;;;;;5037301;28;20190;-68
2023/12/16 04:48:01;;;;;;;6.43;4.60;;;4.90;27.60;;;;;;5035467;28;20191;-69
2023/12/16 04:50:29;;;;;;;7.73;5.20;;;4.90;27.90;;;;;;5033436;28;20428;-68
2023/12/16 04:52:54;;;;;;;6.30;3.70;;;5.00;28.40;;;;;;5034750;28;20541;-68
2023/12/16 04:55:20;;;;;;;6.67;4.60;;;4.90;28.30;;;;;;5016571;28;20421;-68
2023/12/16 04:57:45;;;;;;;5.50;3.40;;;4.90;28.30;;;;;;5033673;28;20176;-68
2023/12/16 05:00:12;;;;;;;4.50;2.63;;;4.90;27.70;;;;;;5033784;28;20195;-67
2023/12/16 05:02:37;;;;;;;4.03;2.90;;;4.70;26.50;;;;;;5033185;28;20638;-68
2023/12/16 05:05:03;;;;;;;5.33;3.53;;;4.80;26.60;;;;;;5033400;28;20410;-69
2023/12/16 05:07:29;;;;;;;4.83;3.43;;;4.70;25.00;;;;;;5033683;28;20249;-68
2023/12/16 05:09:55;;;;;;;5.63;4.77;;;4.60;25.70;;;;;;5016411;28;20215;-68
2023/12/16 05:12:20;;;;;;;3.93;2.73;;;4.50;26.90;;;;;;5033403;28;20723;-67
2023/12/16 05:14:46;;;;;;;4.13;2.73;;;4.40;25.30;;;;;;5034122;28;20623;-68
2023/12/16 05:17:11;;;;;;;5.20;3.83;;;4.40;26.10;;;;;;5032384;28;20557;-68
2023/12/16 05:19:37;;;;;;;4.60;2.90;;;4.40;26.90;;;;;;5032685;28;20665;-68
2023/12/16 05:22:03;;;;;;;4.20;3.37;;;4.30;26.90;;;;;;5032818;28;20580;-67
2023/12/16 05:24:28;;;;;;;5.30;3.80;;;4.30;27.90;;;;;;5032833;28;20178;-67
2023/12/16 05:26:54;;;;;;;4.80;2.93;;;4.30;27.90;;;;;;5032397;28;20183;-67
2023/12/16 05:29:19;;;;;;;3.40;2.90;;;4.20;27.80;;;;;;5032220;28;20212;-68
2023/12/16 05:31:45;;;;;;;7.17;4.30;;;4.20;27.80;;;;;;5032711;28;20179;-68
2023/12/16 05:34:10;;;;;;;4.87;3.10;;;4.10;27.80;;;;;;5032510;28;20205;-68
2023/12/16 05:36:36;;;;;;;3.40;2.90;;;4.10;27.80;;;;;;5014829;28;20199;-67
2023/12/16 05:39:02;;;;;;;5.67;3.63;;;4.10;28.60;;;;;;5032464;28;20288;-67
2023/12/16 05:41:28;;;;;;;4.23;3.23;;;4.20;28.80;;;;;;5014497;28;20184;-70
2023/12/16 05:43:53;;;;;;;5.67;2.83;;;4.20;28.70;;;;;;5035585;28;20841;-68
2023/12/16 05:46:19;;;;;;;4.73;3.10;;;4.20;28.10;;;;;;5035756;28;20186;-69
2023/12/16 05:48:44;;;;;;;5.30;4.00;;;4.20;27.80;;;;;;5017591;28;20215;-69
2023/12/16 05:51:10;;;;;;;4.97;3.30;;;4.20;27.40;;;;;;5035705;28;20178;-69
2023/12/16 05:53:35;;;;;;;5.43;3.00;;;4.20;26.30;;;;;;5035981;28;20186;-68
2023/12/16 05:56:05;;;;;;;4.10;2.80;;;4.20;26.60;;;;;;5036125;28;20186;-68
2023/12/16 05:58:31;;;;;;;3.63;2.63;;;4.20;26.60;;;;;;5035343;28;20313;-69
2023/12/16 06:00:58;;;;;;;4.87;3.70;;;4.30;26.20;;;;;;5035725;28;20528;-69
2023/12/16 06:03:24;;;;;;;6.20;4.77;;;4.20;25.30;;;;;;5035801;28;20493;-69
2023/12/16 06:05:50;;;;;;;9.00;5.63;;;4.10;27.40;;;;;;5036126;28;20674;-69
2023/12/16 06:08:16;;;;;;;7.17;5.13;;;4.00;29.30;;;;;;5035396;28;20477;-68
2023/12/16 06:10:41;;;;;;;13.43;7.77;;;4.00;29.00;;;;;;5035789;28;20214;-67
2023/12/16 06:13:07;;;;;;;11.93;6.63;;;3.90;29.40;;;;;;5018133;28;20289;-67
2023/12/16 06:15:33;;;;;;;7.67;6.50;;;3.90;29.70;;;;;;5035439;28;20179;-68
2023/12/16 06:18:02;;;;;;;9.43;7.17;;;3.80;30.60;;;;;;5034998;28;20492;-69
2023/12/16 06:20:28;;;;;;;10.47;7.57;;;3.80;30.80;;;;;;5018077;28;20920;-68
2023/12/16 06:22:53;;;;;;;9.40;8.10;;;3.80;31.20;;;;;;5019062;28;20416;-69
2023/12/16 06:25:19;;;;;;;11.00;8.53;;;3.90;32.10;;;;;;5018093;28;20183;-67
2023/12/16 06:27:45;;;;;;;9.00;7.30;;;3.90;31.30;;;;;;5017154;28;20177;-68
2023/12/16 06:30:12;;;;;;;8.93;7.50;;;3.80;30.00;;;;;;5034946;28;20341;-67
2023/12/16 06:32:37;;;;;;;9.47;6.77;;;3.80;30.00;;;;;;5035048;28;20175;-68
2023/12/16 06:35:03;;;;;;;12.20;9.43;;;3.90;30.20;;;;;;5017437;28;20805;-68
2023/12/16 06:37:29;;;;;;;11.40;8.50;;;3.90;29.90;;;;;;5034879;28;20617;-69
2023/12/16 06:39:54;;;;;;;10.30;7.70;;;3.90;28.90;;;;;;5034892;28;20436;-69
2023/12/16 06:42:20;;;;;;;15.80;8.90;;;3.90;29.00;;;;;;5035204;28;20182;-68
2023/12/16 06:44:46;;;;;;;8.90;7.70;;;3.80;28.60;;;;;;5035230;28;20232;-68
2023/12/16 06:47:12;;;;;;;12.20;9.40;;;3.80;28.20;;;;;;5035247;28;20424;-67
2023/12/16 06:49:38;;;;;;;8.23;7.07;;;3.80;28.40;;;;;;5034806;28;20219;-68
2023/12/16 06:52:04;;;;;;;10.40;8.00;;;3.70;28.00;;;;;;5017302;28;20183;-67
2023/12/16 06:54:29;;;;;;;10.43;9.30;;;3.80;27.60;;;;;;5033944;28;20414;-68
2023/12/16 06:56:55;;;;;;;12.37;8.80;;;3.80;27.70;;;;;;5034717;28;20463;-69
2023/12/16 06:59:20;;;;;;;9.63;7.77;;;3.80;29.20;;;;;;5016872;28;20215;-69
2023/12/16 07:01:46;;;;;;;13.77;9.47;;;3.80;29.00;;;;;;5016829;28;20179;-69
2023/12/16 07:04:11;;;;;;;9.50;8.27;;;3.80;29.20;;;;;;5016855;28;20182;-69
2023/12/16 07:06:37;;;;;;;11.33;8.23;;;3.90;29.50;;;;;;5034930;28;20545;-68
2023/12/16 07:09:02;;;;;;;11.90;8.37;;;3.90;28.50;;;;;;5036026;28;20210;-68
2023/12/16 07:11:28;;;;;;;13.10;8.57;;;3.90;28.80;;;;;;5019806;28;20185;-68
2023/12/16 07:13:54;;;;;;;8.33;7.10;;;3.90;28.70;;;;;;5036484;28;20257;-67
2023/12/16 07:16:19;;;;;;;11.87;8.80;;;3.90;28.70;;;;;;5035635;28;20213;-68
2023/12/16 07:18:45;;;;;;;10.63;7.63;;;4.00;28.30;;;;;;5035718;28;20203;-67
2023/12/16 07:21:11;;;;;;;9.83;8.40;;;4.00;28.40;;;;;;5035702;28;20187;-68
2023/12/16 07:23:36;;;;;;;12.13;8.73;;;4.00;28.30;;;;;;5017376;28;20672;-69
2023/12/16 07:26:02;;;;;;;10.17;8.57;;;4.10;27.70;;;;;;5034919;28;20182;-68
2023/12/16 07:28:28;;;;;;;20.53;9.47;;;4.00;27.70;;;;;;5016862;28;20270;-71
2023/12/16 07:30:54;;;;;;;11.03;9.80;;;4.10;28.30;;;;;;5034085;28;20425;-71
2023/12/16 07:33:19;;;;;;;12.73;9.20;;;4.10;27.80;;;;;;5034184;28;20896;-71
2023/12/16 07:35:45;;;;;;;10.47;7.93;;;4.20;27.80;;;;;;5034026;28;20178;-71
2023/12/16 07:38:10;;;;;;;8.77;7.87;;;4.20;27.10;;;;;;5034179;28;20695;-72
2023/12/16 07:40:36;;;;;;;11.53;8.03;;;4.20;27.80;;;;;;5016656;28;20182;-72
2023/12/16 07:43:02;;;;;;;10.10;7.90;;;4.30;26.40;;;;;;5033655;28;20179;-71
2023/12/16 07:45:28;;;;;;;10.80;7.80;;;4.30;27.00;;;;;;5033449;28;20182;-72
2023/12/16 07:47:54;;;;;;;8.80;7.87;;;4.30;27.10;;;;;;5033425;28;20908;-71
2023/12/16 07:50:20;;;;;;;9.67;8.20;;;4.40;27.10;;;;;;5033870;28;20602;-71
2023/12/16 07:52:47;;;;;;;12.90;8.67;;;4.50;26.40;;;;;;5034396;28;20167;-71
2023/12/16 07:55:13;;;;;;;11.10;8.63;;;4.50;26.60;;;;;;5016030;28;20424;-71
2023/12/16 07:57:39;;;;;;;11.10;7.03;;;4.60;27.10;;;;;;5015602;28;20436;-71
2023/12/16 08:00:05;;;;;;;9.10;6.97;;;4.60;25.70;;;;;;5015717;28;20442;-71
2023/12/16 08:02:31;;;;;;;8.20;6.87;;;4.60;23.60;;;;;;5033285;28;20183;-72
2023/12/16 08:05:00;;;;;;;9.77;7.23;;;4.60;24.00;;;;;;5015436;28;20563;-71
2023/12/16 08:07:25;;;;;;;10.30;6.23;;;4.60;24.00;;;;;;5033532;28;20178;-68
2023/12/16 08:09:51;;;;;;;10.53;7.60;;;4.60;24.20;;;;;;5033264;28;20806;-68
2023/12/16 08:12:16;;;;;;;7.97;6.40;;;4.70;23.30;;;;;;5027903;28;20715;-70
2023/12/16 08:14:42;;;;;;;9.93;7.47;;;4.70;24.20;;;;;;5029840;28;20186;-68
2023/12/16 08:17:07;;;;;;;10.30;7.40;;;4.80;23.00;;;;;;5011397;28;20423;-68
2023/12/16 08:19:33;;;;;;;9.13;7.00;;;4.90;23.70;;;;;;5010048;28;20195;-70
2023/12/16 08:22:00;;;;;;;8.80;6.83;;;5.00;23.10;;;;;;5029914;28;20186;-70
2023/12/16 08:24:26;;;;;;;11.40;6.27;;;5.10;22.90;;;;;;5032775;28;20175;-71
2023/12/16 08:26:51;;;;;;;8.37;6.60;;;5.10;21.70;;;;;;5007063;28;20438;-69
2023/12/16 08:29:18;;;;;;;7.03;6.27;;;5.10;20.20;;;;;;5012781;28;20210;-69
2023/12/16 08:31:44;;;;;;;7.90;6.27;;;5.10;21.40;;;;;;5016841;28;20176;-70
2023/12/16 08:34:09;;;;;;;10.63;6.90;;;5.00;20.10;;;;;;5016798;28;20476;-68
2023/12/16 08:36:35;;;;;;;8.53;6.87;;;4.90;21.30;;;;;;5034247;28;20421;-68
2023/12/16 08:39:01;;;;;;;9.40;6.73;;;5.10;22.40;;;;;;5033937;28;20265;-69
2023/12/16 08:41:27;;;;;;;9.40;7.23;;;5.20;21.90;;;;;;5016631;28;20609;-68
2023/12/16 08:43:52;;;;;;;8.80;7.07;;;5.30;20.80;;;;;;5034263;28;20414;-68
2023/12/16 08:46:23;;;;;;;7.70;5.67;;;5.40;19.20;;;;;;5027241;28;21079;-68
2023/12/16 08:48:48;;;;;;;9.83;6.50;;;5.40;19.30;;;;;;5034311;28;20214;-68
2023/12/16 08:51:21;;;;;;;12.23;8.50;;;5.30;18.40;;;;;;5044227;28;20426;-68
2023/12/16 08:53:46;;;;;;;9.03;6.60;;;5.30;20.30;;;;;;5035894;28;20184;-68
2023/12/16 08:56:12;;;;;;;8.30;6.80;;;5.50;19.50;;;;;;5035492;28;20983;-68
2023/12/16 08:58:38;;;;;;;8.63;5.50;;;5.60;18.50;;;;;;5017348;28;20695;-67
2023/12/16 09:01:04;;;;;;;7.87;6.70;;;5.70;17.70;;;;;;5033273;28;20436;-68
2023/12/16 09:03:29;;;;;;;6.77;5.80;;;5.60;17.00;;;;;;5029670;28;20258;-67
2023/12/16 09:05:55;;;;;;;8.83;6.07;;;5.50;18.30;;;;;;5029185;28;20224;-67
2023/12/16 09:08:21;;;;;;;7.03;5.63;;;5.50;17.60;;;;;;5013229;28;20986;-68
2023/12/16 09:10:46;;;;;;;9.73;6.63;;;5.60;17.90;;;;;;5013279;28;20179;-66
2023/12/16 09:13:13;;;;;;;10.87;7.50;;;5.70;16.40;;;;;;5020357;28;20414;-67
2023/12/16 09:15:38;;;;;;;8.83;6.10;;;5.70;15.60;;;;;;5030272;28;20180;-67
2023/12/16 09:18:04;;;;;;;6.10;4.80;;;5.70;15.90;;;;;;5016024;28;20468;-67
2023/12/16 09:20:30;;;;;;;8.03;6.40;;;5.80;16.20;;;;;;5004777;28;20188;-67
2023/12/16 09:22:59;;;;;;;7.17;5.83;;;5.90;14.60;;;;;;5021017;28;20427;-66
2023/12/16 09:25:25;;;;;;;12.20;6.70;;;6.00;14.70;;;;;;5020165;28;20485;-68
2023/12/16 09:27:52;;;;;;;6.03;4.57;;;6.00;13.50;;;;;;5033098;28;20834;-67
2023/12/16 09:30:19;;;;;;;8.53;5.80;;;6.00;12.60;;;;;;5004855;28;20184;-67
2023/12/16 09:32:47;;;;;;;8.07;6.20;;;6.10;12.80;;;;;;5038951;28;20431;-67
2023/12/16 09:35:13;;;;;;;10.90;6.57;;;6.30;12.40;;;;;;5038997;28;20402;-66
2023/12/16 09:37:39;;;;;;;8.73;6.13;;;6.40;12.50;;;;;;5038511;28;20896;-67
2023/12/16 09:40:05;;;;;;;10.73;6.50;;;6.50;12.30;;;;;;5038561;28;20183;-68
2023/12/16 09:42:32;;;;;;;11.87;7.30;;;6.50;10.40;;;;;;5039164;28;20180;-66
2023/12/16 09:44:58;;;;;;;8.30;5.80;;;6.40;10.10;;;;;;5020931;28;20418;-69
2023/12/16 09:47:24;;;;;;;8.37;5.90;;;6.40;10.50;;;;;;5038722;28;20494;-67
2023/12/16 09:49:52;;;;;;;9.60;6.90;;;6.50;11.40;;;;;;5039851;28;20279;-68
2023/12/16 09:52:18;;;;;;;8.60;6.50;;;6.40;11.20;;;;;;5041861;28;20411;-67
2023/12/16 09:54:43;;;;;;;9.63;6.67;;;6.50;10.90;;;;;;5041060;28;20837;-67
2023/12/16 09:57:12;;;;;;;8.83;6.23;;;6.60;9.00;;;;;;5040536;28;20610;-67
2023/12/16 09:59:39;;;;;;;10.70;7.80;;;6.60;9.80;;;;;;5073204;22;20228;-70
2023/12/16 10:02:14;;;;;;;7.53;5.93;;;6.60;9.10;;;;;;5057651;28;20817;-70
2023/12/16 10:04:40;;;;;;;7.90;5.80;;;6.70;8.30;;;;;;5057613;28;20404;-70
2023/12/16 10:07:08;;;;;;;7.40;5.83;;;6.70;8.30;;;;;;5057730;28;20465;-70
2023/12/16 10:09:34;;;;;;;8.37;6.80;;;6.90;8.10;;;;;;5070689;28;20493;-71
2023/12/16 10:12:00;;;;;;;9.13;6.37;;;6.80;8.60;;;;;;5077888;28;20428;-71
2023/12/16 10:14:26;;;;;;;9.13;6.40;;;6.90;8.40;;;;;;5077672;28;20176;-71
2023/12/16 10:17:02;;;;;;;9.90;6.80;;;7.10;8.70;;;;;;5062824;28;20418;-71
2023/12/16 10:19:28;;;;;;;8.63;6.47;;;7.10;8.50;;;;;;5057265;28;20195;-71
2023/12/16 10:21:53;;;;;;;8.60;6.83;;;7.10;8.60;;;;;;5057576;28;20426;-71
2023/12/16 10:24:19;;;;;;;10.83;5.20;;;7.10;6.50;;;;;;5047652;28;20180;-71
2023/12/16 10:26:44;;;;;;;8.77;6.00;;;7.20;6.00;;;;;;5077740;28;20266;-71
2023/12/16 10:29:10;;;;;;;8.20;6.97;;;7.40;6.20;;;;;;5074974;28;20402;-71
2023/12/16 10:31:38;;;;;;;7.10;5.80;;;7.60;4.50;;;;;;5074349;28;20231;-69
2023/12/16 10:34:04;;;;;;;8.20;6.60;;;7.70;3.30;;;;;;5074362;28;20648;-71
2023/12/16 10:36:30;;;;;;;8.70;7.57;;;7.80;2.80;;;;;;5074371;28;20505;-71
2023/12/16 10:38:57;;;;;;;8.40;7.13;;;7.70;3.00;;;;;;5073598;28;20205;-71
2023/12/16 10:41:22;;;;;;;9.20;7.27;;;7.70;4.40;;;;;;5074854;28;20438;-71
2023/12/16 10:43:48;;;;;;;7.47;6.43;;;7.70;4.20;;;;;;5056218;28;20431;-71
2023/12/16 10:46:17;;;;;;;11.77;8.50;;;8.10;3.80;;;;;;5056007;28;20193;-71
2023/12/16 10:48:50;;;;;;;9.70;7.40;;;8.40;3.20;;;;;;5073687;28;20240;-71
2023/12/16 10:51:18;;;;;;;8.30;5.97;;;8.60;1.00;;;;;;5074186;28;20469;-72
2023/12/16 10:54:05;;;;;;;9.40;6.97;;;8.70;1.00;;;;;;5065727;28;20416;-72
2023/12/16 10:56:37;;;;;;;6.00;5.40;;;8.70;1.00;;;;;;5036009;28;20455;-72
2023/12/16 10:59:03;;;;;;;12.70;5.43;;;9.10;1.00;;;;;;5035609;28;20461;-73
2023/12/16 11:01:32;;;;;;;6.43;5.50;;;9.40;1.00;;;;;;5053747;28;20444;-71
2023/12/16 11:04:12;;;;;;;6.37;4.40;;;9.30;1.00;;;;;;5053704;28;20254;-69
2023/12/16 11:06:40;;;;;;;5.53;4.70;;;9.20;1.00;;;;;;5053805;28;20760;-70
2023/12/16 11:09:06;;;;;;;4.00;2.90;;;9.30;1.00;;;;;;5048109;28;20495;-70
2023/12/16 11:11:34;;;;;;;3.70;2.80;;;9.20;1.00;;;;;;5073581;28;20444;-70
2023/12/16 11:13:59;;;;;;;5.23;3.73;;;8.90;1.00;;;;;;5073555;28;20412;-70
2023/12/16 11:17:02;;;;;;;6.10;3.90;;;8.80;1.00;;;;;;5055579;28;20416;-69
2023/12/16 11:19:44;;;;;;;3.90;3.20;;;8.80;1.00;;;;;;5055527;28;20441;-69
2023/12/16 11:22:11;;;;;;;5.03;3.60;;;8.40;1.00;;;;;;5053537;28;20848;-70
2023/12/16 11:24:40;;;;;;;4.63;3.23;;;8.40;1.00;;;;;;5053379;28;20417;-70
2023/12/16 11:27:06;;;;;;;6.33;4.80;;;8.30;1.00;;;;;;5053241;28;20780;-69
2023/12/16 11:29:32;;;;;;;5.70;4.40;;;8.20;1.00;;;;;;5052962;28;20457;-70
2023/12/16 11:31:58;;;;;;;4.93;4.07;;;8.30;1.00;;;;;;5052212;28;20184;-70
2023/12/16 11:34:53;;;;;;;5.37;4.00;;;8.20;1.00;;;;;;5073206;28;20538;-70
2023/12/16 11:37:40;;;;;;;5.57;3.77;;;8.10;1.00;;;;;;5073104;28;20484;-69
2023/12/16 11:40:09;;;;;;;4.67;2.97;;;8.00;1.00;;;;;;5072288;28;20802;-69
2023/12/16 11:42:54;;;;;;;4.10;3.50;;;7.80;1.00;;;;;;5068498;28;20428;-69
2023/12/16 11:45:37;;;;;;;4.50;3.30;;;7.90;1.00;;;;;;5052993;28;20439;-69
2023/12/16 11:48:06;;;;;;;6.10;3.50;;;7.90;1.00;;;;;;5052584;28;20907;-70
2023/12/16 11:50:34;;;;;;;3.60;3.30;;;8.00;1.00;;;;;;5052897;28;20747;-70
2023/12/16 11:53:01;;;;;;;5.73;3.43;;;8.10;1.00;;;;;;5052947;28;20412;-71
2023/12/16 11:55:26;;;;;;;4.57;3.10;;;7.90;1.00;;;;;;5052818;28;20420;-69
2023/12/16 11:57:53;;;;;;;4.27;2.80;;;7.90;1.00;;;;;;5061146;28;20415;-69
2023/12/16 12:00:19;;;;;;;3.63;2.80;;;7.90;1.00;;;;;;5072196;28;20185;-68
2023/12/16 12:02:45;;;;;;;4.60;3.10;;;8.00;1.00;;;;;;5072581;28;20499;-71
2023/12/16 12:05:12;;;;;;;4.63;3.03;;;8.10;1.00;;;;;;5072510;28;20404;-72
2023/12/16 12:07:41;;;;;;;5.50;3.20;;;8.00;1.00;;;;;;5072361;28;20416;-71
2023/12/16 12:10:08;;;;;;;5.30;3.90;;;7.90;1.00;;;;;;5072358;28;20463;-72
2023/12/16 12:12:34;;;;;;;4.10;3.70;;;7.90;1.00;;;;;;5045678;28;20425;-73
2023/12/16 12:15:00;;;;;;;5.30;3.97;;;8.10;1.00;;;;;;5052389;28;20779;-73
2023/12/16 12:17:28;;;;;;;4.80;3.10;;;8.10;1.00;;;;;;5052213;28;20465;-73
2023/12/16 12:19:55;;;;;;;4.50;3.50;;;8.00;1.00;;;;;;5052265;28;20431;-73
2023/12/16 12:22:21;;;;;;;5.90;3.47;;;8.00;1.00;;;;;;5034646;28;20963;-73
2023/12/16 12:24:47;;;;;;;4.73;3.10;;;7.80;1.00;;;;;;5034390;28;20464;-73
2023/12/16 12:27:13;;;;;;;5.70;3.47;;;7.80;1.00;;;;;;5060130;28;20430;-73
2023/12/16 12:30:04;;;;;;;6.60;4.40;;;8.00;1.00;;;;;;5071756;28;20684;-73
2023/12/16 12:32:31;;;;;;;4.50;3.93;;;8.00;1.00;;;;;;5072208;28;20178;-72
2023/12/16 12:35:05;;;;;;;7.33;4.80;;;8.00;1.00;;;;;;5064594;28;20431;-73
2023/12/16 12:37:40;;;;;;;4.63;2.60;;;8.00;1.00;;;;;;5063617;28;20505;-73
2023/12/16 12:40:17;;;;;;;6.30;2.90;;;8.10;1.00;;;;;;5053918;28;20444;-73
2023/12/16 12:42:43;;;;;;;4.80;2.97;;;8.20;1.00;;;;;;5054279;28;20465;-73
2023/12/16 12:45:09;;;;;;;4.03;2.53;;;8.30;1.00;;;;;;5071686;28;20435;-73
2023/12/16 12:47:35;;;;;;;8.00;3.40;;;8.00;1.00;;;;;;5060327;28;20421;-72
2023/12/16 12:50:00;;;;;;;6.43;3.50;;;8.00;1.00;;;;;;5051561;28;20217;-72
2023/12/16 12:52:37;;;;;;;4.77;3.57;;;7.90;1.00;;;;;;5050939;28;20695;-73
2023/12/16 12:55:03;;;;;;;6.40;2.83;;;8.00;1.00;;;;;;5051595;28;20184;-73